sensor_id;sensor_type;location;lat;lon;timestamp;pressure;altitude;pressure_sealevel;temperature;humidity
71195;BME280;58908;51.426;7.714;2022-10-16T00:02:13;99353.94;;;13.27;100.00
71195;BME280;58908;51.426;7.714;2022-10-16T00:04:39;99353.03;;;13.28;100.00
71195;BME280;58908;51.426;7.714;2022-10-16T00:07:06;99351.09;;;13.30;100.00
71195;BME280;58908;51.426;7.714;2022-10-16T00:09:32;99355.88;;;13.25;100.00
71195;BME280;58908;51.426;7.714;2022-10-16T00:11:58;99350.81;;;13.22;100.00
71195;BME280;58908;51.426;7.714;2022-10-16T00:14:24;99353.47;;;13.22;100.00
71195;BME280;58908;51.426;7.714;2022-10-16T00:16:50;99355.66;;;13.28;100.00
71195;BME280;58908;51.426;7.714;2022-10-16T00:19:18;99349.28;;;13.30;100.00
71195;BME280;58908;51.426;7.714;2022-10-16T00:21:44;99358.31;;;13.28;100.00
71195;BME280;58908;51.426;7.714;2022-10-16T00:24:11;99359.25;;;13.27;100.00
71195;BME280;58908;51.426;7.714;2022-10-16T00:26:37;99356.25;;;13.31;100.00
71195;BME280;58908;51.426;7.714;2022-10-16T00:29:04;99358.41;;;13.26;100.00
71195;BME280;58908;51.426;7.714;2022-10-16T00:31:31;99362.66;;;13.29;100.00
71195;BME280;58908;51.426;7.714;2022-10-16T00:33:57;99355.66;;;13.28;100.00
71195;BME280;58908;51.426;7.714;2022-10-16T00:36:25;99359.38;;;13.25;100.00
71195;BME280;58908;51.426;7.714;2022-10-16T00:38:51;99367.44;;;13.24;100.00
71195;BME280;58908;51.426;7.714;2022-10-16T00:41:20;99375.84;;;13.18;100.00
71195;BME280;58908;51.426;7.714;2022-10-16T00:43:47;99372.44;;;13.16;100.00
71195;BME280;58908;51.426;7.714;2022-10-16T00:46:15;99362.59;;;13.18;100.00
71195;BME280;58908;51.426;7.714;2022-10-16T00:48:42;99364.63;;;13.14;100.00
71195;BME280;58908;51.426;7.714;2022-10-16T00:51:08;99359.66;;;13.10;100.00
71195;BME280;58908;51.426;7.714;2022-10-16T00:53:36;99367.94;;;13.05;100.00
71195;BME280;58908;51.426;7.714;2022-10-16T00:56:02;99367.50;;;13.11;100.00
71195;BME280;58908;51.426;7.714;2022-10-16T00:58:29;99375.09;;;13.16;100.00
71195;BME280;58908;51.426;7.714;2022-10-16T01:00:55;99362.13;;;13.24;100.00
71195;BME280;58908;51.426;7.714;2022-10-16T01:03:23;99366.66;;;13.34;100.00
71195;BME280;58908;51.426;7.714;2022-10-16T01:05:51;99362.34;;;13.44;100.00
71195;BME280;58908;51.426;7.714;2022-10-16T01:08:22;99371.19;;;13.56;100.00
71195;BME280;58908;51.426;7.714;2022-10-16T01:10:54;99358.50;;;13.48;100.00
71195;BME280;58908;51.426;7.714;2022-10-16T01:13:24;99374.25;;;13.39;100.00
71195;BME280;58908;51.426;7.714;2022-10-16T01:15:52;99371.44;;;13.29;100.00
71195;BME280;58908;51.426;7.714;2022-10-16T01:18:21;99373.78;;;13.21;100.00
71195;BME280;58908;51.426;7.714;2022-10-16T01:20:51;99367.44;;;13.24;100.00
71195;BME280;58908;51.426;7.714;2022-10-16T01:23:21;99371.63;;;13.15;100.00
71195;BME280;58908;51.426;7.714;2022-10-16T01:25:58;99374.16;;;13.17;100.00
71195;BME280;58908;51.426;7.714;2022-10-16T01:28:29;99374.16;;;13.17;100.00
71195;BME280;58908;51.426;7.714;2022-10-16T01:30:58;99368.72;;;13.18;100.00
71195;BME280;58908;51.426;7.714;2022-10-16T01:33:27;99377.63;;;13.17;100.00
71195;BME280;58908;51.426;7.714;2022-10-16T01:35:55;99391.28;;;13.24;100.00
71195;BME280;58908;51.426;7.714;2022-10-16T01:38:25;99399.94;;;13.26;100.00
71195;BME280;58908;51.426;7.714;2022-10-16T01:40:54;99402.19;;;13.19;100.00
71195;BME280;58908;51.426;7.714;2022-10-16T01:43:22;99407.72;;;13.16;100.00
71195;BME280;58908;51.426;7.714;2022-10-16T01:45:52;99392.91;;;13.14;100.00
71195;BME280;58908;51.426;7.714;2022-10-16T01:48:19;99398.53;;;13.09;100.00
71195;BME280;58908;51.426;7.714;2022-10-16T01:50:50;99395.38;;;13.04;100.00
71195;BME280;58908;51.426;7.714;2022-10-16T01:53:18;99393.94;;;13.00;100.00
71195;BME280;58908;51.426;7.714;2022-10-16T01:55:46;99387.03;;;12.98;100.00
71195;BME280;58908;51.426;7.714;2022-10-16T01:58:13;99391.78;;;13.05;100.00
71195;BME280;58908;51.426;7.714;2022-10-16T02:00:40;99384.06;;;13.02;100.00
71195;BME280;58908;51.426;7.714;2022-10-16T02:03:08;99389.69;;;12.98;100.00
71195;BME280;58908;51.426;7.714;2022-10-16T02:05:37;99381.31;;;12.91;100.00
71195;BME280;58908;51.426;7.714;2022-10-16T02:08:05;99382.69;;;12.84;100.00
71195;BME280;58908;51.426;7.714;2022-10-16T02:10:31;99387.38;;;12.81;100.00
71195;BME280;58908;51.426;7.714;2022-10-16T02:12:59;99383.22;;;12.89;100.00
71195;BME280;58908;51.426;7.714;2022-10-16T02:15:26;99391.19;;;12.89;100.00
71195;BME280;58908;51.426;7.714;2022-10-16T02:17:52;99395.09;;;12.96;100.00
71195;BME280;58908;51.426;7.714;2022-10-16T02:20:21;99396.13;;;13.06;100.00
71195;BME280;58908;51.426;7.714;2022-10-16T02:22:50;99396.56;;;13.00;100.00
71195;BME280;58908;51.426;7.714;2022-10-16T02:25:19;99393.94;;;13.00;100.00
71195;BME280;58908;51.426;7.714;2022-10-16T02:27:49;99394.13;;;12.97;100.00
71195;BME280;58908;51.426;7.714;2022-10-16T02:30:19;99392.56;;;12.95;100.00
71195;BME280;58908;51.426;7.714;2022-10-16T02:32:47;99400.38;;;12.96;100.00
71195;BME280;58908;51.426;7.714;2022-10-16T02:35:14;99391.72;;;12.94;100.00
71195;BME280;58908;51.426;7.714;2022-10-16T02:37:42;99396.91;;;12.96;100.00
71195;BME280;58908;51.426;7.714;2022-10-16T02:40:09;99395.38;;;13.04;100.00
71195;BME280;58908;51.426;7.714;2022-10-16T02:42:37;99386.97;;;13.10;100.00
71195;BME280;58908;51.426;7.714;2022-10-16T02:45:04;99377.34;;;13.09;100.00
71195;BME280;58908;51.426;7.714;2022-10-16T02:47:31;99396.03;;;12.95;100.00
71195;BME280;58908;51.426;7.714;2022-10-16T02:49:58;99396.34;;;12.91;100.00
71195;BME280;58908;51.426;7.714;2022-10-16T02:52:24;99395.38;;;12.92;100.00
71195;BME280;58908;51.426;7.714;2022-10-16T02:54:52;99396.78;;;12.97;100.00
71195;BME280;58908;51.426;7.714;2022-10-16T02:57:18;99402.69;;;12.88;100.00
71195;BME280;58908;51.426;7.714;2022-10-16T02:59:44;99400.81;;;12.90;100.00
71195;BME280;58908;51.426;7.714;2022-10-16T03:02:11;99395.63;;;13.01;100.00
71195;BME280;58908;51.426;7.714;2022-10-16T03:04:37;99391.69;;;13.07;100.00
71195;BME280;58908;51.426;7.714;2022-10-16T03:07:03;99380.84;;;13.10;100.00
71195;BME280;58908;51.426;7.714;2022-10-16T03:09:30;99392.16;;;13.12;100.00
71195;BME280;58908;51.426;7.714;2022-10-16T03:11:57;99391.69;;;13.07;100.00
71195;BME280;58908;51.426;7.714;2022-10-16T03:14:24;99385.41;;;13.08;100.00
71195;BME280;58908;51.426;7.714;2022-10-16T03:16:50;99394.53;;;13.04;100.00
71195;BME280;58908;51.426;7.714;2022-10-16T03:19:16;99390.91;;;13.05;100.00
71195;BME280;58908;51.426;7.714;2022-10-16T03:21:43;99385.53;;;13.06;100.00
71195;BME280;58908;51.426;7.714;2022-10-16T03:24:09;99394.53;;;13.04;100.00
71195;BME280;58908;51.426;7.714;2022-10-16T03:26:35;99396.97;;;13.07;100.00
71195;BME280;58908;51.426;7.714;2022-10-16T03:29:03;99400.13;;;13.12;100.00
71195;BME280;58908;51.426;7.714;2022-10-16T03:31:30;99405.41;;;13.12;100.00
71195;BME280;58908;51.426;7.714;2022-10-16T03:33:56;99398.75;;;13.06;100.00
71195;BME280;58908;51.426;7.714;2022-10-16T03:36:22;99387.22;;;13.07;100.00
71195;BME280;58908;51.426;7.714;2022-10-16T03:38:49;99375.03;;;13.05;100.00
71195;BME280;58908;51.426;7.714;2022-10-16T03:41:15;99389.47;;;13.01;100.00
71195;BME280;58908;51.426;7.714;2022-10-16T03:43:41;99375.66;;;13.08;100.00
71195;BME280;58908;51.426;7.714;2022-10-16T03:46:09;99379.41;;;13.06;100.00
71195;BME280;58908;51.426;7.714;2022-10-16T03:48:35;99369.72;;;13.05;100.00
71195;BME280;58908;51.426;7.714;2022-10-16T03:51:02;99376.22;;;13.01;100.00
71195;BME280;58908;51.426;7.714;2022-10-16T03:53:28;99370.44;;;12.96;100.00
71195;BME280;58908;51.426;7.714;2022-10-16T03:55:54;99384.94;;;12.90;100.00
71195;BME280;58908;51.426;7.714;2022-10-16T03:58:20;99396.66;;;12.86;100.00
71195;BME280;58908;51.426;7.714;2022-10-16T04:00:47;99410.31;;;12.93;100.00
71195;BME280;58908;51.426;7.714;2022-10-16T04:03:14;99410.63;;;12.88;100.00
71195;BME280;58908;51.426;7.714;2022-10-16T04:05:41;99399.81;;;13.04;99.68
71195;BME280;58908;51.426;7.714;2022-10-16T04:08:07;99411.66;;;13.11;98.38
71195;BME280;58908;51.426;7.714;2022-10-16T04:10:33;99417.59;;;13.14;97.71
71195;BME280;58908;51.426;7.714;2022-10-16T04:12:59;99404.59;;;13.11;97.83
71195;BME280;58908;51.426;7.714;2022-10-16T04:15:26;99406.69;;;13.06;97.99
71195;BME280;58908;51.426;7.714;2022-10-16T04:17:52;99406.22;;;13.01;98.03
71195;BME280;58908;51.426;7.714;2022-10-16T04:20:20;99414.13;;;12.89;99.31
71195;BME280;58908;51.426;7.714;2022-10-16T04:22:46;99412.94;;;12.93;98.40
71195;BME280;58908;51.426;7.714;2022-10-16T04:25:12;99421.69;;;12.95;97.84
71195;BME280;58908;51.426;7.714;2022-10-16T04:27:39;99431.31;;;12.96;97.88
71195;BME280;58908;51.426;7.714;2022-10-16T04:30:05;99421.03;;;12.91;98.21
71195;BME280;58908;51.426;7.714;2022-10-16T04:32:32;99419.34;;;12.90;98.24
71195;BME280;58908;51.426;7.714;2022-10-16T04:34:58;99434.25;;;12.91;98.05
71195;BME280;58908;51.426;7.714;2022-10-16T04:37:26;99431.19;;;12.97;97.48
71195;BME280;58908;51.426;7.714;2022-10-16T04:39:52;99426.75;;;12.98;97.69
71195;BME280;58908;51.426;7.714;2022-10-16T04:42:18;99444.09;;;13.02;97.37
71195;BME280;58908;51.426;7.714;2022-10-16T04:44:44;99443.69;;;12.95;97.78
71195;BME280;58908;51.426;7.714;2022-10-16T04:47:11;99442.63;;;12.85;98.66
71195;BME280;58908;51.426;7.714;2022-10-16T04:49:37;99443.47;;;12.98;98.11
71195;BME280;58908;51.426;7.714;2022-10-16T04:52:03;99443.38;;;13.00;98.11
71195;BME280;58908;51.426;7.714;2022-10-16T04:54:31;99462.88;;;12.99;97.93
71195;BME280;58908;51.426;7.714;2022-10-16T04:56:57;99449.63;;;12.99;97.99
71195;BME280;58908;51.426;7.714;2022-10-16T04:59:23;99453.97;;;13.00;98.58
71195;BME280;58908;51.426;7.714;2022-10-16T05:01:50;99449.41;;;13.02;98.05
71195;BME280;58908;51.426;7.714;2022-10-16T05:04:16;99451.66;;;12.95;98.64
71195;BME280;58908;51.426;7.714;2022-10-16T05:06:42;99455.16;;;12.96;98.71
71195;BME280;58908;51.426;7.714;2022-10-16T05:09:08;99452.78;;;13.04;98.64
71195;BME280;58908;51.426;7.714;2022-10-16T05:11:36;99444.50;;;13.08;98.14
71195;BME280;58908;51.426;7.714;2022-10-16T05:14:02;99453.09;;;13.12;97.82
71195;BME280;58908;51.426;7.714;2022-10-16T05:16:29;99457.75;;;13.08;98.18
71195;BME280;58908;51.426;7.714;2022-10-16T05:18:55;99460.06;;;13.13;97.82
71195;BME280;58908;51.426;7.714;2022-10-16T05:21:21;99464.31;;;13.03;98.53
71195;BME280;58908;51.426;7.714;2022-10-16T05:23:47;99471.63;;;12.99;98.63
71195;BME280;58908;51.426;7.714;2022-10-16T05:26:14;99479.38;;;12.90;99.35
71195;BME280;58908;51.426;7.714;2022-10-16T05:28:41;99473.84;;;12.93;99.61
71195;BME280;58908;51.426;7.714;2022-10-16T05:31:08;99466.78;;;12.93;99.34
71195;BME280;58908;51.426;7.714;2022-10-16T05:33:35;99481.06;;;12.91;99.85
71195;BME280;58908;51.426;7.714;2022-10-16T05:36:01;99494.28;;;12.91;99.79
71195;BME280;58908;51.426;7.714;2022-10-16T05:38:28;99488.72;;;12.95;99.99
71195;BME280;58908;51.426;7.714;2022-10-16T05:40:54;99495.59;;;12.98;99.50
71195;BME280;58908;51.426;7.714;2022-10-16T05:43:21;99488.78;;;13.06;99.46
71195;BME280;58908;51.426;7.714;2022-10-16T05:45:54;99486.38;;;13.03;99.15
71195;BME280;58908;51.426;7.714;2022-10-16T05:48:21;99498.25;;;12.98;99.77
71195;BME280;58908;51.426;7.714;2022-10-16T05:50:47;99503.28;;;12.88;100.00
71195;BME280;58908;51.426;7.714;2022-10-16T05:53:13;99515.38;;;12.80;100.00
71195;BME280;58908;51.426;7.714;2022-10-16T05:55:40;99517.28;;;12.78;100.00
71195;BME280;58908;51.426;7.714;2022-10-16T05:58:06;99515.59;;;12.77;100.00
71195;BME280;58908;51.426;7.714;2022-10-16T06:00:32;99518.34;;;12.75;100.00
71195;BME280;58908;51.426;7.714;2022-10-16T06:03:00;99508.72;;;12.74;100.00
71195;BME280;58908;51.426;7.714;2022-10-16T06:05:27;99508.84;;;12.73;100.00
71195;BME280;58908;51.426;7.714;2022-10-16T06:07:53;99524.59;;;12.74;100.00
71195;BME280;58908;51.426;7.714;2022-10-16T06:10:19;99533.69;;;12.83;100.00
71195;BME280;58908;51.426;7.714;2022-10-16T06:12:46;99527.34;;;12.85;100.00
71195;BME280;58908;51.426;7.714;2022-10-16T06:15:12;99530.13;;;12.84;100.00
71195;BME280;58908;51.426;7.714;2022-10-16T06:17:38;99540.84;;;12.95;100.00
71195;BME280;58908;51.426;7.714;2022-10-16T06:20:06;99539.00;;;12.95;100.00
71195;BME280;58908;51.426;7.714;2022-10-16T06:22:32;99533.41;;;13.00;100.00
71195;BME280;58908;51.426;7.714;2022-10-16T06:24:59;99533.06;;;13.04;100.00
71195;BME280;58908;51.426;7.714;2022-10-16T06:27:25;99546.22;;;13.06;100.00
71195;BME280;58908;51.426;7.714;2022-10-16T06:29:51;99557.75;;;13.05;100.00
71195;BME280;58908;51.426;7.714;2022-10-16T06:32:17;99554.78;;;13.09;100.00
71195;BME280;58908;51.426;7.714;2022-10-16T06:34:44;99556.91;;;13.17;100.00
71195;BME280;58908;51.426;7.714;2022-10-16T06:37:11;99565.25;;;13.23;100.00
71195;BME280;58908;51.426;7.714;2022-10-16T06:39:38;99575.31;;;13.31;99.59
71195;BME280;58908;51.426;7.714;2022-10-16T06:42:04;99561.75;;;13.35;99.44
71195;BME280;58908;51.426;7.714;2022-10-16T06:44:30;99564.78;;;13.42;99.34
71195;BME280;58908;51.426;7.714;2022-10-16T06:46:56;99564.47;;;13.46;99.00
71195;BME280;58908;51.426;7.714;2022-10-16T06:49:23;99574.94;;;13.48;98.53
71195;BME280;58908;51.426;7.714;2022-10-16T06:51:49;99571.00;;;13.53;98.82
71195;BME280;58908;51.426;7.714;2022-10-16T06:54:17;99576.91;;;13.69;98.10
71195;BME280;58908;51.426;7.714;2022-10-16T06:56:43;99584.66;;;13.96;96.85
71195;BME280;58908;51.426;7.714;2022-10-16T06:59:09;99582.06;;;14.07;96.04
71195;BME280;58908;51.426;7.714;2022-10-16T07:01:35;99583.75;;;14.08;96.30
71195;BME280;58908;51.426;7.714;2022-10-16T07:04:02;99586.47;;;14.19;95.44
71195;BME280;58908;51.426;7.714;2022-10-16T07:06:30;99574.50;;;15.04;91.42
71195;BME280;58908;51.426;7.714;2022-10-16T07:08:57;99584.91;;;15.62;87.38
71195;BME280;58908;51.426;7.714;2022-10-16T07:11:24;99590.22;;;16.15;84.51
71195;BME280;58908;51.426;7.714;2022-10-16T07:13:51;99596.59;;;15.15;87.34
71195;BME280;58908;51.426;7.714;2022-10-16T07:16:18;99614.44;;;14.91;89.88
71195;BME280;58908;51.426;7.714;2022-10-16T07:18:44;99615.16;;;16.77;82.19
71195;BME280;58908;51.426;7.714;2022-10-16T07:21:12;99617.47;;;17.62;77.05
71195;BME280;58908;51.426;7.714;2022-10-16T07:23:39;99623.41;;;17.75;76.96
71195;BME280;58908;51.426;7.714;2022-10-16T07:26:05;99627.91;;;17.24;77.35
71195;BME280;58908;51.426;7.714;2022-10-16T07:28:33;99637.00;;;16.60;79.75
71195;BME280;58908;51.426;7.714;2022-10-16T07:31:00;99638.53;;;17.95;75.85
71195;BME280;58908;51.426;7.714;2022-10-16T07:33:26;99641.84;;;18.36;73.84
71195;BME280;58908;51.426;7.714;2022-10-16T07:35:53;99639.47;;;18.90;70.87
71195;BME280;58908;51.426;7.714;2022-10-16T07:38:20;99647.19;;;17.87;74.26
71195;BME280;58908;51.426;7.714;2022-10-16T07:40:47;99656.13;;;18.16;73.83
71195;BME280;58908;51.426;7.714;2022-10-16T07:43:13;99659.69;;;18.36;72.85
71195;BME280;58908;51.426;7.714;2022-10-16T07:45:47;99661.66;;;17.55;75.07
71195;BME280;58908;51.426;7.714;2022-10-16T07:48:14;99656.50;;;18.89;71.91
71195;BME280;58908;51.426;7.714;2022-10-16T07:50:40;99640.28;;;18.91;71.16
71195;BME280;58908;51.426;7.714;2022-10-16T07:53:07;99646.34;;;19.02;70.67
71195;BME280;58908;51.426;7.714;2022-10-16T07:55:33;99656.31;;;19.29;68.73
71195;BME280;58908;51.426;7.714;2022-10-16T07:58:00;99653.53;;;18.45;71.20
71195;BME280;58908;51.426;7.714;2022-10-16T08:00:26;99670.97;;;18.09;73.95
71195;BME280;58908;51.426;7.714;2022-10-16T08:02:53;99670.69;;;17.63;76.26
71195;BME280;58908;51.426;7.714;2022-10-16T08:05:21;99662.47;;;17.76;74.35
71195;BME280;58908;51.426;7.714;2022-10-16T08:07:48;99672.47;;;16.92;77.27
71195;BME280;58908;51.426;7.714;2022-10-16T08:10:14;99677.03;;;16.81;78.27
71195;BME280;58908;51.426;7.714;2022-10-16T08:12:42;99679.31;;;16.32;80.91
71195;BME280;58908;51.426;7.714;2022-10-16T08:15:09;99687.88;;;17.29;77.85
71195;BME280;58908;51.426;7.714;2022-10-16T08:17:35;99692.56;;;16.65;79.02
71195;BME280;58908;51.426;7.714;2022-10-16T08:20:03;99698.91;;;16.53;79.61
71195;BME280;58908;51.426;7.714;2022-10-16T08:22:29;99701.06;;;16.05;82.93
71195;BME280;58908;51.426;7.714;2022-10-16T08:24:56;99701.38;;;18.18;74.19
71195;BME280;58908;51.426;7.714;2022-10-16T08:27:22;99708.69;;;18.93;70.49
71195;BME280;58908;51.426;7.714;2022-10-16T08:29:48;99703.34;;;18.84;71.29
71195;BME280;58908;51.426;7.714;2022-10-16T08:32:15;99703.69;;;19.91;67.74
71195;BME280;58908;51.426;7.714;2022-10-16T08:34:41;99706.75;;;19.69;67.29
71195;BME280;58908;51.426;7.714;2022-10-16T08:37:09;99706.38;;;19.91;66.17
71195;BME280;58908;51.426;7.714;2022-10-16T08:39:36;99714.34;;;19.19;67.72
71195;BME280;58908;51.426;7.714;2022-10-16T08:42:05;99722.72;;;19.05;68.51
71195;BME280;58908;51.426;7.714;2022-10-16T08:44:44;99722.47;;;18.98;68.68
71195;BME280;58908;51.426;7.714;2022-10-16T08:47:17;99717.34;;;19.52;67.49
71195;BME280;58908;51.426;7.714;2022-10-16T08:49:47;99730.22;;;19.94;64.96
71195;BME280;58908;51.426;7.714;2022-10-16T08:52:21;99729.19;;;19.59;66.25
71195;BME280;58908;51.426;7.714;2022-10-16T08:54:48;99736.19;;;20.15;65.61
71195;BME280;58908;51.426;7.714;2022-10-16T08:57:17;99742.84;;;19.65;64.85
71195;BME280;58908;51.426;7.714;2022-10-16T08:59:45;99741.19;;;19.46;65.44
71195;BME280;58908;51.426;7.714;2022-10-16T09:02:19;99750.38;;;20.25;62.21
71195;BME280;58908;51.426;7.714;2022-10-16T09:04:58;99746.91;;;20.15;62.97
71195;BME280;58908;51.426;7.714;2022-10-16T09:07:30;99754.66;;;19.72;61.42
71195;BME280;58908;51.426;7.714;2022-10-16T09:10:06;99758.22;;;20.09;60.83
71195;BME280;58908;51.426;7.714;2022-10-16T09:12:37;99759.50;;;19.96;61.62
71195;BME280;58908;51.426;7.714;2022-10-16T09:15:12;99768.97;;;19.90;60.46
71195;BME280;58908;51.426;7.714;2022-10-16T09:17:42;99767.41;;;19.97;59.86
71195;BME280;58908;51.426;7.714;2022-10-16T09:20:18;99769.00;;;19.71;60.69
71195;BME280;58908;51.426;7.714;2022-10-16T09:22:46;99768.38;;;19.96;59.62
71195;BME280;58908;51.426;7.714;2022-10-16T09:25:13;99768.38;;;20.06;58.84
71195;BME280;58908;51.426;7.714;2022-10-16T09:27:40;99777.09;;;19.34;62.04
71195;BME280;58908;51.426;7.714;2022-10-16T09:30:11;99786.25;;;20.15;59.59
71195;BME280;58908;51.426;7.714;2022-10-16T09:32:37;99779.75;;;19.43;61.04
71195;BME280;58908;51.426;7.714;2022-10-16T09:35:09;99781.19;;;20.12;59.89
71195;BME280;58908;51.426;7.714;2022-10-16T09:37:37;99775.66;;;19.48;61.52
71195;BME280;58908;51.426;7.714;2022-10-16T09:40:05;99778.31;;;18.82;63.97
71195;BME280;58908;51.426;7.714;2022-10-16T09:42:32;99784.31;;;18.65;64.60
71195;BME280;58908;51.426;7.714;2022-10-16T09:44:59;99781.44;;;18.08;65.76
71195;BME280;58908;51.426;7.714;2022-10-16T09:47:26;99790.28;;;18.09;67.70
71195;BME280;58908;51.426;7.714;2022-10-16T09:49:54;99786.09;;;18.16;66.43
71195;BME280;58908;51.426;7.714;2022-10-16T09:52:21;99802.22;;;18.35;65.81
71195;BME280;58908;51.426;7.714;2022-10-16T09:54:51;99800.59;;;17.93;65.61
71195;BME280;58908;51.426;7.714;2022-10-16T09:57:19;99801.56;;;17.92;68.48
71195;BME280;58908;51.426;7.714;2022-10-16T09:59:46;99801.47;;;17.93;66.71
71195;BME280;58908;51.426;7.714;2022-10-16T10:02:13;99795.34;;;17.82;65.72
71195;BME280;58908;51.426;7.714;2022-10-16T10:04:40;99798.56;;;17.55;67.05
71195;BME280;58908;51.426;7.714;2022-10-16T10:07:14;99790.34;;;17.47;68.34
71195;BME280;58908;51.426;7.714;2022-10-16T10:09:43;99803.47;;;17.60;70.01
71195;BME280;58908;51.426;7.714;2022-10-16T10:12:16;99794.13;;;17.45;67.55
71195;BME280;58908;51.426;7.714;2022-10-16T10:14:45;99805.78;;;17.12;69.07
71195;BME280;58908;51.426;7.714;2022-10-16T10:17:14;99797.72;;;17.23;68.46
71195;BME280;58908;51.426;7.714;2022-10-16T10:19:42;99805.84;;;17.22;69.02
71195;BME280;58908;51.426;7.714;2022-10-16T10:22:30;99797.38;;;17.48;67.37
71195;BME280;58908;51.426;7.714;2022-10-16T10:24:57;99800.06;;;17.48;67.94
71195;BME280;58908;51.426;7.714;2022-10-16T10:27:26;99813.97;;;17.52;68.94
71195;BME280;58908;51.426;7.714;2022-10-16T10:29:59;99813.47;;;17.78;68.96
71195;BME280;58908;51.426;7.714;2022-10-16T10:32:28;99805.81;;;17.94;67.86
71195;BME280;58908;51.426;7.714;2022-10-16T10:35:01;99806.47;;;17.87;65.76
71195;BME280;58908;51.426;7.714;2022-10-16T10:37:42;99812.78;;;17.45;67.53
71195;BME280;58908;51.426;7.714;2022-10-16T10:40:15;99800.47;;;17.33;67.37
71195;BME280;58908;51.426;7.714;2022-10-16T10:42:48;99807.06;;;17.49;68.80
71195;BME280;58908;51.426;7.714;2022-10-16T10:45:21;99811.16;;;17.53;67.20
71195;BME280;58908;51.426;7.714;2022-10-16T10:47:56;99812.81;;;17.34;68.31
71195;BME280;58908;51.426;7.714;2022-10-16T10:50:26;99805.25;;;17.18;67.24
71195;BME280;58908;51.426;7.714;2022-10-16T10:52:59;99814.00;;;17.09;67.65
71195;BME280;58908;51.426;7.714;2022-10-16T10:55:31;99817.31;;;17.02;68.66
71195;BME280;58908;51.426;7.714;2022-10-16T10:58:04;99818.91;;;16.93;69.56
71195;BME280;58908;51.426;7.714;2022-10-16T11:00:38;99819.81;;;16.83;71.37
71195;BME280;58908;51.426;7.714;2022-10-16T11:03:10;99822.56;;;16.82;71.95
71195;BME280;58908;51.426;7.714;2022-10-16T11:05:40;99812.16;;;16.90;70.36
71195;BME280;58908;51.426;7.714;2022-10-16T11:08:08;99814.91;;;16.99;69.27
71195;BME280;58908;51.426;7.714;2022-10-16T11:10:38;99819.63;;;16.95;69.98
71195;BME280;58908;51.426;7.714;2022-10-16T11:13:10;99816.22;;;17.04;69.47
71195;BME280;58908;51.426;7.714;2022-10-16T11:15:41;99812.56;;;17.05;69.44
71195;BME280;58908;51.426;7.714;2022-10-16T11:18:11;99814.97;;;17.08;69.74
71195;BME280;58908;51.426;7.714;2022-10-16T11:20:42;99824.81;;;17.08;69.24
71195;BME280;58908;51.426;7.714;2022-10-16T11:23:11;99814.19;;;16.97;68.27
71195;BME280;58908;51.426;7.714;2022-10-16T11:25:40;99820.75;;;16.82;67.90
71195;BME280;58908;51.426;7.714;2022-10-16T11:28:10;99815.28;;;16.94;69.83
71195;BME280;58908;51.426;7.714;2022-10-16T11:30:39;99827.25;;;17.00;68.15
71195;BME280;58908;51.426;7.714;2022-10-16T11:33:14;99821.91;;;17.00;68.58
71195;BME280;58908;51.426;7.714;2022-10-16T11:35:47;99825.78;;;17.07;70.09
71195;BME280;58908;51.426;7.714;2022-10-16T11:38:15;99816.16;;;17.15;69.27
71195;BME280;58908;51.426;7.714;2022-10-16T11:40:47;99827.53;;;17.17;70.43
71195;BME280;58908;51.426;7.714;2022-10-16T11:43:17;99823.78;;;17.20;69.16
71195;BME280;58908;51.426;7.714;2022-10-16T11:45:46;99824.34;;;17.34;69.20
71195;BME280;58908;51.426;7.714;2022-10-16T11:48:20;99811.75;;;17.36;68.06
71195;BME280;58908;51.426;7.714;2022-10-16T11:50:50;99821.34;;;17.28;67.88
71195;BME280;58908;51.426;7.714;2022-10-16T11:53:21;99825.69;;;17.29;68.27
71195;BME280;58908;51.426;7.714;2022-10-16T11:55:49;99822.44;;;17.25;68.52
71195;BME280;58908;51.426;7.714;2022-10-16T11:58:19;99826.13;;;17.13;68.82
71195;BME280;58908;51.426;7.714;2022-10-16T12:00:51;99822.78;;;17.00;69.19
71195;BME280;58908;51.426;7.714;2022-10-16T12:03:21;99824.59;;;17.00;70.01
71195;BME280;58908;51.426;7.714;2022-10-16T12:08:39;99817.84;;;16.85;68.08
71195;BME280;58908;51.426;7.714;2022-10-16T12:11:06;99818.91;;;16.93;69.82
71195;BME280;58908;51.426;7.714;2022-10-16T12:13:34;99823.22;;;17.05;69.33
71195;BME280;58908;51.426;7.714;2022-10-16T12:16:04;99827.47;;;17.08;67.94
71195;BME280;58908;51.426;7.714;2022-10-16T12:18:32;99829.00;;;17.10;65.90
71195;BME280;58908;51.426;7.714;2022-10-16T12:20:59;99828.41;;;17.18;65.42
71195;BME280;58908;51.426;7.714;2022-10-16T12:23:30;99837.56;;;17.25;64.05
71195;BME280;58908;51.426;7.714;2022-10-16T12:25:57;99834.19;;;17.23;64.89
71195;BME280;58908;51.426;7.714;2022-10-16T12:28:26;99839.91;;;17.18;64.25
71195;BME280;58908;51.426;7.714;2022-10-16T12:30:54;99841.81;;;17.27;64.56
71195;BME280;58908;51.426;7.714;2022-10-16T12:33:21;99853.91;;;17.31;64.30
71195;BME280;58908;51.426;7.714;2022-10-16T12:35:49;99845.91;;;17.31;64.81
71195;BME280;58908;51.426;7.714;2022-10-16T12:38:17;99852.69;;;17.46;66.25
71195;BME280;58908;51.426;7.714;2022-10-16T12:40:44;99853.06;;;17.42;65.96
71195;BME280;58908;51.426;7.714;2022-10-16T12:43:26;99851.00;;;17.45;66.60
71195;BME280;58908;51.426;7.714;2022-10-16T12:46:00;99846.69;;;17.54;65.61
71195;BME280;58908;51.426;7.714;2022-10-16T12:48:26;99845.72;;;17.55;65.27
71195;BME280;58908;51.426;7.714;2022-10-16T12:50:54;99854.00;;;17.52;64.94
71195;BME280;58908;51.426;7.714;2022-10-16T12:53:21;99851.31;;;17.52;65.28
71195;BME280;58908;51.426;7.714;2022-10-16T12:55:51;99851.44;;;17.71;63.80
71195;BME280;58908;51.426;7.714;2022-10-16T12:58:30;99843.66;;;17.79;64.35
71195;BME280;58908;51.426;7.714;2022-10-16T13:01:02;99841.06;;;17.88;64.01
71195;BME280;58908;51.426;7.714;2022-10-16T13:03:45;99842.94;;;17.77;62.37
71195;BME280;58908;51.426;7.714;2022-10-16T13:06:19;99842.66;;;17.80;63.02